Siemreap, Cambodia

5:17 PM ICT on July 23, 2016 (GMT +0700)
Siem Reap | | Change Station

Elev 49 ft 13.37 °N, 103.85 °E | Updated 17 minutes ago

Light Rain Showers
Light Showers Rain
88 °F
Feels Like 100 °F
N
13
Wind Variable Wind from West

Today
High -- | Low -- °F
--% Chance of Precip.
Yesterday
High -- | Low -- °F
Precip. -- in
Pressure 29.68 in
Visibility 3.7 miles
Clouds Scattered Clouds 1500 ft
Few 1700 ft
Scattered Clouds 4000 ft
Heat Index 100 °F
Dew Point 77 °F
Humidity 70%
Rainfall 0.00 in
Snow Depth Not available.
5:47 AM 6:34 PM
Waning Gibbous, 86% visible
METAR VDSR 231000Z 26011KT 6000 -SHRA SCT015 FEW017CB SCT040 31/25 Q1005 CB/SW,N
Pressure 29.68 in
Visibility 3.7 miles
Clouds Scattered Clouds 1500 ft
Few 1700 ft
Scattered Clouds 4000 ft
Heat Index 100 °F
Dew Point 77 °F
Humidity 70%
Rainfall 0.00 in
Snow Depth Not available.
5:47 AM 6:34 PM
Waning Gibbous, 86% visible
METAR VDSR 231000Z 26011KT 6000 -SHRA SCT015 FEW017CB SCT040 31/25 Q1005 CB/SW,N

10-Day Weather Forecast

No radar image for this location.
×

Almanac

Astronomy

Jul. 23, 2016 Rise Set
Actual Time
Civil Twilight
Nautical Twilight
Astronomical Twilight
Moon
Length of Visible Light
Length of Day
Tomorrow will be .
, % of the Moon is Illuminated

Today's Extremes

Country Highs Country Lows

Community

WunderPhotos

Upload Photos

1,926,789 photos uploaded!

WunderBlog® & News

Nearby

Air Quality

  Air Quality AQ Index Pollutant
Not available.

Snow Depth

Station Depth Elevation

Earthquake Activity

City Distance Mag. Time & Date
Minimum magnitude displayed is 2.5.

Coastal Water Temperatures

Place Temperature

Stations

Nearby Weather Stations

Station Location Temp. Windchill Dew Point Humidity Wind Precip. Elev Updated Type